• Join FlightAware (Why Join?)
  • Login
  • US Flag 
01:35PM EST


 

Airport Tracker/Info


-or-


 

Live Flight TrackerFlight Track Log ✈ SWA2131 ✈ 20-Apr-2013 ✈ KBNA - KPHL

Flight Track Log - Related Links

Times and Time Zones

All times are in EDT time to prevent confusion due to time zone crossing. See the SWA2131 flight status page for this flight to view local times or setup timezone preferences in your user account.

Time Position Orientation Groundspeed Altitude Reporting Facility
EDT Latitude Longitude Course Direction KTS MPH feet Rate Location/Type
10:43AM 36.0667 -86.6500 158° South 220 253 3,400  Level Nashville TRACON
10:44AM 36.1000 -86.5500 68° East 278 320 6,300 2,760 Climbing Nashville TRACON
10:44AM 36.1167 -86.4833 73° East 292 336 8,700 2,580 Climbing Nashville TRACON
10:45AM 36.1308 -86.3994 78° East 310 357 10,800 2,700 Climbing Memphis Center
10:46AM 36.1628 -86.2875 71° East 336 387 13,900 3,240 Climbing Memphis Center
10:47AM 36.1981 -86.1622 71° East 363 418 17,300 3,120 Climbing Memphis Center
10:48AM 36.2503 -86.0436 61° Northeast 385 443 20,200 2,400 Climbing Memphis Center
10:51AM 36.3756 -85.7517 62° Northeast 426 490 25,200 2,100 Climbing Indianapolis Center
10:52AM 36.4342 -85.6103 63° Northeast 452 520 27,300 2,040 Climbing Indianapolis Center
10:53AM 36.4969 -85.4633 62° Northeast 473 544 29,400 1,860 Climbing Indianapolis Center
10:54AM 36.5597 -85.3097 63° Northeast 492 566 31,200 1,740 Climbing Indianapolis Center
10:55AM 36.6344 -85.1194 64° Northeast 508 585 33,000 1,320 Climbing Indianapolis Center
10:56AM 36.6853 -84.9511 69° East 515 593 34,000 480 Climbing Indianapolis Center
10:57AM 36.7347 -84.7831 70° East 514 592 34,000  Level Indianapolis Center
10:58AM 36.7875 -84.6158 68° East 513 590 34,000  Level Indianapolis Center
10:59AM 36.8389 -84.4428 70° East 516 594 34,000 900 Level Indianapolis Center
11:00AM 36.8892 -84.2739 70° East 517 595 35,900 1,440 Climbing Indianapolis Center
11:01AM 36.9397 -84.1069 69° East 513 590 37,000 1,140 Climbing Indianapolis Center
11:02AM 36.9906 -83.9356 70° East 524 603 38,300 960 Climbing Indianapolis Center
11:03AM 37.0414 -83.7644 70° East 520 598 39,000 300 Climbing Indianapolis Center
11:04AM 37.0897 -83.5942 70° East 516 594 39,000  Level Indianapolis Center
11:05AM 37.1494 -83.3953 69° East 516 594 39,000  Level Indianapolis Center
11:06AM 37.1989 -83.2231 70° East 518 596 39,000  Level Indianapolis Center
11:07AM 37.2481 -83.0528 70° East 515 593 39,000  Level Indianapolis Center
11:08AM 37.2975 -82.8803 70° East 516 594 39,000  Level Indianapolis Center
11:09AM 37.3464 -82.7075 70° East 519 597 39,000  Level Indianapolis Center
11:10AM 37.3961 -82.5342 70° East 523 602 39,000  Level Indianapolis Center
11:11AM 37.4456 -82.3600 70° East 525 604 39,000  Level Indianapolis Center
11:12AM 37.4933 -82.1869 71° East 522 601 39,000  Level Indianapolis Center
11:13AM 37.5425 -82.0128 70° East 525 604 39,000  Level Indianapolis Center
11:14AM 37.5903 -81.8367 71° East 529 609 39,000  Level Indianapolis Center
11:15AM 37.6461 -81.6325 71° East 528 608 39,000  Level Indianapolis Center
11:16AM 37.6869 -81.4814 71° East 527 606 39,000  Level Indianapolis Center
11:17AM 37.7406 -81.2764 72° East 526 605 39,000  Level Indianapolis Center
11:18AM 37.7833 -81.1064 72° East 522 601 39,000  Level Indianapolis Center
11:19AM 37.7936 -80.9294 86° East 511 588 39,000  Level Washington Center
11:20AM 37.8056 -80.7542 85° East 506 582 39,000  Level Washington Center
11:21AM 37.8147 -80.5892 86° East 506 582 39,000  Level Washington Center
11:22AM 37.8261 -80.4111 85° East 506 582 39,000  Level Washington Center
11:23AM 37.8375 -80.2303 85° East 511 588 39,000 -660 Level Washington Center
11:24AM 37.8506 -80.0522 85° East 516 594 37,700 -1,980 Descending Washington Center
11:25AM 37.8611 -79.8714 86° East 516 594 35,100 -2,400 Descending Washington Center
11:26AM 37.8725 -79.6719 86° East 516 594 33,000 -1,320 Descending Washington Center
11:27AM 37.8844 -79.5017 85° East 504 580 32,500 -780 Descending Washington Center
11:28AM 37.8919 -79.3311 87° East 489 563 31,500 -780 Descending Washington Center
11:29AM 37.9033 -79.1606 85° East 484 557 31,000 -300 Descending Washington Center
11:30AM 37.9186 -78.9928 83° East 477 549 31,000  Level Washington Center
11:31AM 37.9378 -78.8250 82° East 477 549 31,000  Level Washington Center
11:32AM 37.9564 -78.6731 81° East 477 549 31,000  Level Washington Center
11:33AM 37.9772 -78.5106 81° East 477 549 31,000  Level Washington Center
11:34AM 37.9958 -78.3400 82° East 482 555 31,000  Level Washington Center
11:35AM 38.0231 -78.1511 80° East 482 555 31,000  Level Washington Center
11:36AM 38.0972 -77.9875 60° Northeast 493 567 31,000 -360 Level Washington Center
11:37AM 38.1753 -77.8264 58° Northeast 511 588 30,300 -900 Descending Washington Center
11:38AM 38.2575 -77.6647 57° Northeast 531 611 29,300 -660 Descending Washington Center
11:39AM 38.3353 -77.5028 58° Northeast 536 617 29,000 -180 Descending Washington Center
11:40AM 38.4169 -77.3406 57° Northeast 536 617 29,000  Level Washington Center
11:41AM 38.4942 -77.1806 58° Northeast 536 617 29,000 -360 Level Washington Center
11:42AM 38.5736 -77.0150 58° Northeast 536 617 28,300 -1,680 Descending Washington Center
11:43AM 38.6525 -76.8517 58° Northeast 536 617 25,700 -2,160 Descending Washington Center
11:44AM 38.7167 -76.6853 64° Northeast 531 611 24,000 -1,500 Descending Washington Center
11:45AM 38.7492 -76.5286 75° East 481 554 22,800 -2,160 Descending Washington Center
11:46AM 38.7772 -76.3800 76° East 475 547 19,700 -2,700 Descending Washington Center
11:47AM 38.8117 -76.2203 74° East 470 541 17,400 -2,220 Descending Washington Center
11:48AM 38.8478 -76.0661 73° East 462 532 15,300 -1,260 Descending Washington Center
11:49AM 38.8753 -75.9222 76° East 438 504 14,900 -600 Descending Washington Center
11:50AM 38.9319 -75.7972 60° Northeast 419 482 14,200 -900 Descending Washington Center
11:51AM 39.0236 -75.7144 35° Northeast 396 456 13,200 -1,020 Descending Washington Center
11:53AM 39.1525 -75.6681 16° North 363 418 12,000 -840 Descending FAA TRACON SMA TRACON (SMA)
11:53AM 39.1831 -75.6647 North 358 412 12,000  Level FAA TRACON SMA TRACON (SMA)
11:53AM 39.2136 -75.6614 North 358 412 12,000 -1,380 Level FAA TRACON SMA TRACON (SMA)
11:54AM 39.2508 -75.6569 North 357 411 11,100 -2,100 Descending FAA TRACON SMA TRACON (SMA)
11:54AM 39.2828 -75.6506 North 370 426 10,600 -1,500 Descending FAA TRACON SMA TRACON (SMA)
11:54AM 39.3094 -75.6308 30° Northeast 368 423 10,100 -900 Descending FAA TRACON SMA TRACON (SMA)
11:55AM 39.3325 -75.6089 36° Northeast 358 412 10,000 -300 Descending FAA TRACON SMA TRACON (SMA)
11:55AM 39.3661 -75.5828 31° Northeast 341 392 9,900 -780 Descending FAA TRACON SMA TRACON (SMA)
11:55AM 39.3839 -75.5575 48° Northeast 323 372 9,500 -1,260 Descending FAA TRACON SMA TRACON (SMA)
11:56AM 39.4014 -75.5303 50° Northeast 329 379 9,100 -1,200 Descending FAA TRACON SMA TRACON (SMA)
11:56AM 39.4250 -75.4961 48° Northeast 313 360 8,700 -1,200 Descending FAA TRACON SMA TRACON (SMA)
11:56AM 39.4417 -75.4689 52° Northeast 314 361 8,300 -1,380 Descending FAA TRACON SMA TRACON (SMA)
11:57AM 39.4622 -75.4372 50° Northeast 311 358 7,800 -1,200 Descending FAA TRACON SMA TRACON (SMA)
11:57AM 39.4792 -75.4094 52° Northeast 307 353 7,500 -1,080 Descending FAA TRACON SMA TRACON (SMA)
11:57AM 39.4922 -75.3817 59° Northeast 296 341 7,100 -780 Descending FAA TRACON SMA TRACON (SMA)
11:58AM 39.5025 -75.3428 71° East 298 343 7,000 -180 Descending FAA TRACON SMA TRACON (SMA)
11:58AM 39.5117 -75.3100 70° East 308 354 7,000  Level FAA TRACON SMA TRACON (SMA)
11:58AM 39.5206 -75.2778 70° East 310 357 7,000  Level FAA TRACON SMA TRACON (SMA)
11:59AM 39.5311 -75.2406 70° East 304 350 7,000  Level FAA TRACON SMA TRACON (SMA)
11:59AM 39.5400 -75.2075 71° East 300 345 7,000  Level FAA TRACON SMA TRACON (SMA)
11:59AM 39.5497 -75.1778 67° East 296 341 7,000 -1,200 Level FAA TRACON SMA TRACON (SMA)
12:00PM 39.5708 -75.1492 46° Northeast 286 329 6,200 -1,800 Descending FAA TRACON SMA TRACON (SMA)
12:00PM 39.5892 -75.1275 42° Northeast 288 331 5,800 -1,080 Descending FAA TRACON SMA TRACON (SMA)
12:00PM 39.6075 -75.1058 42° Northeast 288 331 5,500 -780 Descending FAA TRACON SMA TRACON (SMA)
12:01PM 39.6289 -75.0797 43° Northeast 282 325 5,300 -780 Descending FAA TRACON SMA TRACON (SMA)
12:01PM 39.6458 -75.0578 45° Northeast 275 316 5,000 -1,200 Descending FAA TRACON SMA TRACON (SMA)
12:01PM 39.6647 -75.0433 30° Northeast 259 298 4,500 -1,500 Descending FAA TRACON SMA TRACON (SMA)
12:02PM 39.6903 -75.0306 21° North 253 291 4,000 -1,380 Descending FAA TRACON SMA TRACON (SMA)
12:02PM 39.7114 -75.0294 North 246 283 3,600 -1,380 Descending FAA TRACON SMA TRACON (SMA)
12:02PM 39.7325 -75.0283 North 246 283 3,100 -900 Descending FAA TRACON SMA TRACON (SMA)
12:03PM 39.7589 -75.0269 North 244 281 3,000 -180 Descending FAA TRACON SMA TRACON (SMA)
12:03PM 39.7781 -75.0264 North 224 258 3,000  Level FAA TRACON SMA TRACON (SMA)
12:03PM 39.7944 -75.0247 North 200 230 3,000  Level FAA TRACON SMA TRACON (SMA)
12:04PM 39.8164 -75.0236 North 189 217 3,000  Level FAA TRACON SMA TRACON (SMA)
12:04PM 39.8328 -75.0231 North 190 219 3,000 -480 Level FAA TRACON SMA TRACON (SMA)
12:04PM 39.8511 -75.0308 342° North 177 204 2,700 -900 Descending FAA TRACON SMA TRACON (SMA)
12:05PM 39.8667 -75.0375 342° North 184 212 2,400 -1,080 Descending FAA TRACON SMA TRACON (SMA)
12:05PM 39.8814 -75.0433 343° North 181 208 2,000 -600 Descending FAA TRACON SMA TRACON (SMA)
12:05PM 39.8925 -75.0558 319° Northwest 168 193 2,000  Level FAA TRACON SMA TRACON (SMA)
12:06PM 39.8986 -75.0794 289° West 175 201 2,000  Level FAA TRACON SMA TRACON (SMA)
12:06PM 39.9003 -75.0983 277° West 177 204 2,000 -480 Level FAA TRACON SMA TRACON (SMA)
12:06PM 39.8961 -75.1169 254° West 176 203 1,700 -1,080 Descending FAA TRACON SMA TRACON (SMA)
12:07PM 39.8919 -75.1394 256° West 165 190 1,300 -900 Descending FAA TRACON SMA TRACON (SMA)
12:07PM 39.8894 -75.1556 259° West 144 166 1,100 -600 Descending FAA TRACON SMA TRACON (SMA)
12:07PM 39.8858 -75.1711 253° West 133 153 900 -780 Descending FAA TRACON SMA TRACON (SMA)
12:08PM 39.8828 -75.1861 255° West 129 148 600 -780 Descending FAA TRACON SMA TRACON (SMA)
12:08PM 39.8800 -75.1997 255° West 125 144 400 -600 Descending FAA TRACON SMA TRACON (SMA)
12:08PM 39.8772 -75.2128 255° West 123 142 200 -300 Descending FAA TRACON SMA TRACON (SMA)
12:09PM 39.8767 -75.2161 258° West 122 140 200  Level FAA TRACON SMA TRACON (SMA)
12:11PM 39.8667 -75.2333 38° Northeast  Level FlightAware Approximate